sensor_id;sensor_type;location;lat;lon;timestamp;P1;durP1;ratioP1;P2;durP2;ratioP2
4102;SDS011;2065;49.790;9.620;2022-07-23T00:03:26;10.33;;;8.17;;
4102;SDS011;2065;49.790;9.620;2022-07-23T00:17:53;12.03;;;9.23;;
4102;SDS011;2065;49.790;9.620;2022-07-23T00:20:21;11.90;;;8.87;;
4102;SDS011;2065;49.790;9.620;2022-07-23T00:22:49;9.43;;;8.53;;
4102;SDS011;2065;49.790;9.620;2022-07-23T00:25:16;9.57;;;8.67;;
4102;SDS011;2065;49.790;9.620;2022-07-23T00:27:44;11.90;;;9.80;;
4102;SDS011;2065;49.790;9.620;2022-07-23T00:30:11;11.10;;;10.00;;
4102;SDS011;2065;49.790;9.620;2022-07-23T00:32:45;12.40;;;9.10;;
4102;SDS011;2065;49.790;9.620;2022-07-23T00:35:13;11.50;;;8.33;;
4102;SDS011;2065;49.790;9.620;2022-07-23T00:37:41;9.60;;;8.70;;
4102;SDS011;2065;49.790;9.620;2022-07-23T00:40:09;12.10;;;8.50;;
4102;SDS011;2065;49.790;9.620;2022-07-23T01:07:43;9.77;;;8.87;;
4102;SDS011;2065;49.790;9.620;2022-07-23T01:25:01;10.17;;;8.47;;
4102;SDS011;2065;49.790;9.620;2022-07-23T01:27:28;12.80;;;8.97;;
4102;SDS011;2065;49.790;9.620;2022-07-23T01:30:46;14.57;;;9.40;;
4102;SDS011;2065;49.790;9.620;2022-07-23T01:33:14;10.20;;;8.37;;
4102;SDS011;2065;49.790;9.620;2022-07-23T01:39:00;9.40;;;8.43;;
4102;SDS011;2065;49.790;9.620;2022-07-23T01:41:27;12.57;;;9.33;;
4102;SDS011;2065;49.790;9.620;2022-07-23T01:43:54;12.80;;;10.20;;
4102;SDS011;2065;49.790;9.620;2022-07-23T01:46:45;10.07;;;9.07;;
4102;SDS011;2065;49.790;9.620;2022-07-23T02:00:46;12.77;;;9.07;;
4102;SDS011;2065;49.790;9.620;2022-07-23T02:04:03;13.20;;;8.27;;
4102;SDS011;2065;49.790;9.620;2022-07-23T02:07:19;10.87;;;9.33;;
4102;SDS011;2065;49.790;9.620;2022-07-23T02:12:39;10.77;;;9.30;;
4102;SDS011;2065;49.790;9.620;2022-07-23T02:15:08;11.47;;;8.83;;
4102;SDS011;2065;49.790;9.620;2022-07-23T02:21:45;10.93;;;9.10;;
4102;SDS011;2065;49.790;9.620;2022-07-23T02:27:04;9.13;;;8.20;;
4102;SDS011;2065;49.790;9.620;2022-07-23T02:32:49;10.97;;;9.17;;
4102;SDS011;2065;49.790;9.620;2022-07-23T02:35:16;10.27;;;8.97;;
4102;SDS011;2065;49.790;9.620;2022-07-23T02:38:43;13.93;;;9.33;;
4102;SDS011;2065;49.790;9.620;2022-07-23T02:41:10;12.80;;;9.67;;
4102;SDS011;2065;49.790;9.620;2022-07-23T02:43:37;12.70;;;9.47;;
4102;SDS011;2065;49.790;9.620;2022-07-23T02:48:57;11.20;;;8.67;;
4102;SDS011;2065;49.790;9.620;2022-07-23T02:51:24;10.43;;;9.20;;
4102;SDS011;2065;49.790;9.620;2022-07-23T02:53:57;11.20;;;9.47;;
4102;SDS011;2065;49.790;9.620;2022-07-23T02:56:24;10.07;;;8.87;;
4102;SDS011;2065;49.790;9.620;2022-07-23T02:58:51;10.83;;;9.17;;
4102;SDS011;2065;49.790;9.620;2022-07-23T03:01:19;10.73;;;8.67;;
4102;SDS011;2065;49.790;9.620;2022-07-23T03:10:24;11.10;;;9.30;;
4102;SDS011;2065;49.790;9.620;2022-07-23T03:12:51;10.73;;;9.30;;
4102;SDS011;2065;49.790;9.620;2022-07-23T03:15:18;11.00;;;8.70;;
4102;SDS011;2065;49.790;9.620;2022-07-23T03:18:59;10.43;;;8.70;;
4102;SDS011;2065;49.790;9.620;2022-07-23T03:21:26;10.43;;;9.17;;
4102;SDS011;2065;49.790;9.620;2022-07-23T03:23:53;11.33;;;10.23;;
4102;SDS011;2065;49.790;9.620;2022-07-23T03:30:05;9.80;;;8.80;;
4102;SDS011;2065;49.790;9.620;2022-07-23T03:32:57;10.93;;;8.53;;
4102;SDS011;2065;49.790;9.620;2022-07-23T03:38:44;9.70;;;8.70;;
4102;SDS011;2065;49.790;9.620;2022-07-23T03:44:55;10.90;;;9.80;;
4102;SDS011;2065;49.790;9.620;2022-07-23T03:47:23;9.80;;;8.67;;
4102;SDS011;2065;49.790;9.620;2022-07-23T03:49:50;10.27;;;9.00;;
4102;SDS011;2065;49.790;9.620;2022-07-23T03:52:17;10.40;;;9.40;;
4102;SDS011;2065;49.790;9.620;2022-07-23T03:54:44;11.13;;;9.10;;
4102;SDS011;2065;49.790;9.620;2022-07-23T03:57:11;9.90;;;8.90;;
4102;SDS011;2065;49.790;9.620;2022-07-23T03:59:38;12.50;;;9.10;;
4102;SDS011;2065;49.790;9.620;2022-07-23T04:04:58;11.60;;;9.30;;
4102;SDS011;2065;49.790;9.620;2022-07-23T04:07:26;11.33;;;10.00;;
4102;SDS011;2065;49.790;9.620;2022-07-23T04:09:53;11.23;;;10.10;;
4102;SDS011;2065;49.790;9.620;2022-07-23T04:16:27;11.53;;;10.13;;
4102;SDS011;2065;49.790;9.620;2022-07-23T04:18:57;11.00;;;9.83;;
4102;SDS011;2065;49.790;9.620;2022-07-23T04:21:28;12.33;;;9.90;;
4102;SDS011;2065;49.790;9.620;2022-07-23T04:24:20;12.67;;;9.93;;
4102;SDS011;2065;49.790;9.620;2022-07-23T04:30:55;14.30;;;9.93;;
4102;SDS011;2065;49.790;9.620;2022-07-23T04:33:22;12.90;;;10.30;;
4102;SDS011;2065;49.790;9.620;2022-07-23T04:35:54;13.47;;;10.50;;
4102;SDS011;2065;49.790;9.620;2022-07-23T04:38:21;12.70;;;10.10;;
4102;SDS011;2065;49.790;9.620;2022-07-23T04:41:37;10.83;;;9.73;;
4102;SDS011;2065;49.790;9.620;2022-07-23T04:50:41;11.77;;;10.57;;
4102;SDS011;2065;49.790;9.620;2022-07-23T04:53:17;11.63;;;10.43;;
4102;SDS011;2065;49.790;9.620;2022-07-23T04:55:46;11.70;;;10.50;;
4102;SDS011;2065;49.790;9.620;2022-07-23T04:58:13;12.20;;;10.90;;
4102;SDS011;2065;49.790;9.620;2022-07-23T05:00:40;12.70;;;11.10;;
4102;SDS011;2065;49.790;9.620;2022-07-23T05:03:07;13.43;;;10.90;;
4102;SDS011;2065;49.790;9.620;2022-07-23T05:05:34;11.27;;;10.07;;
4102;SDS011;2065;49.790;9.620;2022-07-23T05:08:09;15.77;;;9.70;;
4102;SDS011;2065;49.790;9.620;2022-07-23T05:11:03;11.90;;;9.03;;
4102;SDS011;2065;49.790;9.620;2022-07-23T05:16:48;10.87;;;9.47;;
4102;SDS011;2065;49.790;9.620;2022-07-23T05:19:21;11.57;;;9.37;;
4102;SDS011;2065;49.790;9.620;2022-07-23T05:21:48;11.50;;;9.70;;
4102;SDS011;2065;49.790;9.620;2022-07-23T05:24:15;10.20;;;8.30;;
4102;SDS011;2065;49.790;9.620;2022-07-23T05:26:44;11.43;;;8.23;;
4102;SDS011;2065;49.790;9.620;2022-07-23T05:29:11;10.37;;;8.20;;
4102;SDS011;2065;49.790;9.620;2022-07-23T05:35:05;10.33;;;8.30;;
4102;SDS011;2065;49.790;9.620;2022-07-23T05:37:37;11.83;;;10.00;;
4102;SDS011;2065;49.790;9.620;2022-07-23T05:42:58;11.30;;;8.93;;
4102;SDS011;2065;49.790;9.620;2022-07-23T05:46:14;9.17;;;7.93;;
4102;SDS011;2065;49.790;9.620;2022-07-23T05:48:45;13.63;;;9.03;;
4102;SDS011;2065;49.790;9.620;2022-07-23T05:51:40;9.40;;;7.97;;
4102;SDS011;2065;49.790;9.620;2022-07-23T05:57:00;8.40;;;7.60;;
4102;SDS011;2065;49.790;9.620;2022-07-23T05:59:29;10.67;;;7.40;;
4102;SDS011;2065;49.790;9.620;2022-07-23T06:01:56;7.43;;;6.50;;
4102;SDS011;2065;49.790;9.620;2022-07-23T06:04:23;9.30;;;7.10;;
4102;SDS011;2065;49.790;9.620;2022-07-23T06:07:07;7.50;;;6.80;;
4102;SDS011;2065;49.790;9.620;2022-07-23T06:12:52;11.03;;;6.67;;
4102;SDS011;2065;49.790;9.620;2022-07-23T06:15:20;7.67;;;6.43;;
4102;SDS011;2065;49.790;9.620;2022-07-23T06:17:47;7.13;;;5.87;;
4102;SDS011;2065;49.790;9.620;2022-07-23T06:20:14;10.10;;;6.73;;
4102;SDS011;2065;49.790;9.620;2022-07-23T06:22:41;7.37;;;6.40;;
4102;SDS011;2065;49.790;9.620;2022-07-23T06:25:08;7.60;;;6.13;;
4102;SDS011;2065;49.790;9.620;2022-07-23T06:27:35;5.93;;;5.37;;
4102;SDS011;2065;49.790;9.620;2022-07-23T06:32:55;8.13;;;7.23;;
4102;SDS011;2065;49.790;9.620;2022-07-23T06:35:22;8.67;;;6.33;;
4102;SDS011;2065;49.790;9.620;2022-07-23T06:37:49;8.23;;;7.43;;
4102;SDS011;2065;49.790;9.620;2022-07-23T06:40:16;8.83;;;7.00;;
4102;SDS011;2065;49.790;9.620;2022-07-23T06:42:43;9.20;;;7.40;;
4102;SDS011;2065;49.790;9.620;2022-07-23T06:45:16;9.90;;;8.40;;
4102;SDS011;2065;49.790;9.620;2022-07-23T06:52:17;8.47;;;7.53;;
4102;SDS011;2065;49.790;9.620;2022-07-23T06:58:40;9.00;;;7.70;;
4102;SDS011;2065;49.790;9.620;2022-07-23T07:01:07;8.30;;;7.40;;
4102;SDS011;2065;49.790;9.620;2022-07-23T07:03:34;9.57;;;6.33;;
4102;SDS011;2065;49.790;9.620;2022-07-23T07:08:55;9.03;;;7.83;;
4102;SDS011;2065;49.790;9.620;2022-07-23T07:11:22;9.67;;;8.67;;
4102;SDS011;2065;49.790;9.620;2022-07-23T07:13:50;10.30;;;8.50;;
4102;SDS011;2065;49.790;9.620;2022-07-23T07:16:17;8.67;;;7.80;;
4102;SDS011;2065;49.790;9.620;2022-07-23T07:18:44;8.80;;;7.20;;
4102;SDS011;2065;49.790;9.620;2022-07-23T07:21:11;9.10;;;8.03;;
4102;SDS011;2065;49.790;9.620;2022-07-23T07:23:38;8.00;;;7.27;;
4102;SDS011;2065;49.790;9.620;2022-07-23T07:29:00;12.80;;;8.83;;
4102;SDS011;2065;49.790;9.620;2022-07-23T07:31:27;9.47;;;8.10;;
4102;SDS011;2065;49.790;9.620;2022-07-23T07:33:54;8.30;;;7.50;;
4102;SDS011;2065;49.790;9.620;2022-07-23T07:36:22;10.20;;;8.30;;
4102;SDS011;2065;49.790;9.620;2022-07-23T07:38:49;11.90;;;8.30;;
4102;SDS011;2065;49.790;9.620;2022-07-23T07:45:00;10.47;;;8.40;;
4102;SDS011;2065;49.790;9.620;2022-07-23T07:47:27;7.80;;;7.07;;
4102;SDS011;2065;49.790;9.620;2022-07-23T07:49:54;8.00;;;7.30;;
4102;SDS011;2065;49.790;9.620;2022-07-23T07:52:21;8.37;;;7.57;;
4102;SDS011;2065;49.790;9.620;2022-07-23T07:54:48;8.30;;;7.03;;
4102;SDS011;2065;49.790;9.620;2022-07-23T07:57:15;8.73;;;6.30;;
4102;SDS011;2065;49.790;9.620;2022-07-23T07:59:42;7.87;;;6.70;;
4102;SDS011;2065;49.790;9.620;2022-07-23T08:06:40;6.87;;;6.23;;
4102;SDS011;2065;49.790;9.620;2022-07-23T08:09:07;7.97;;;7.17;;
4102;SDS011;2065;49.790;9.620;2022-07-23T08:14:52;8.80;;;7.20;;
4102;SDS011;2065;49.790;9.620;2022-07-23T08:17:19;7.93;;;7.20;;
4102;SDS011;2065;49.790;9.620;2022-07-23T08:19:46;8.07;;;6.77;;
4102;SDS011;2065;49.790;9.620;2022-07-23T08:22:14;8.33;;;7.50;;
4102;SDS011;2065;49.790;9.620;2022-07-23T08:24:41;7.77;;;7.07;;
4102;SDS011;2065;49.790;9.620;2022-07-23T08:27:08;9.00;;;7.40;;
4102;SDS011;2065;49.790;9.620;2022-07-23T08:29:34;11.33;;;7.20;;
4102;SDS011;2065;49.790;9.620;2022-07-23T08:34:54;7.97;;;7.17;;
4102;SDS011;2065;49.790;9.620;2022-07-23T08:40:42;7.10;;;6.40;;
4102;SDS011;2065;49.790;9.620;2022-07-23T08:43:10;11.13;;;6.57;;
4102;SDS011;2065;49.790;9.620;2022-07-23T08:50:46;8.07;;;6.33;;
4102;SDS011;2065;49.790;9.620;2022-07-23T08:53:15;9.10;;;6.40;;
4102;SDS011;2065;49.790;9.620;2022-07-23T08:55:44;13.87;;;6.07;;
4102;SDS011;2065;49.790;9.620;2022-07-23T08:58:12;9.70;;;7.47;;
4102;SDS011;2065;49.790;9.620;2022-07-23T09:00:40;7.43;;;6.67;;
4102;SDS011;2065;49.790;9.620;2022-07-23T09:03:07;6.40;;;5.80;;
4102;SDS011;2065;49.790;9.620;2022-07-23T09:05:42;9.07;;;7.20;;
4102;SDS011;2065;49.790;9.620;2022-07-23T09:08:10;8.73;;;6.97;;
4102;SDS011;2065;49.790;9.620;2022-07-23T09:10:43;12.40;;;6.70;;
4102;SDS011;2065;49.790;9.620;2022-07-23T09:13:23;9.10;;;6.60;;
4102;SDS011;2065;49.790;9.620;2022-07-23T09:15:52;9.93;;;7.10;;
4102;SDS011;2065;49.790;9.620;2022-07-23T09:18:27;7.30;;;6.60;;
4102;SDS011;2065;49.790;9.620;2022-07-23T09:21:05;7.90;;;7.10;;
4102;SDS011;2065;49.790;9.620;2022-07-23T09:26:57;8.80;;;7.87;;
4102;SDS011;2065;49.790;9.620;2022-07-23T09:29:24;7.57;;;6.80;;
4102;SDS011;2065;49.790;9.620;2022-07-23T09:31:53;9.43;;;7.33;;
4102;SDS011;2065;49.790;9.620;2022-07-23T09:34:21;8.97;;;6.97;;
4102;SDS011;2065;49.790;9.620;2022-07-23T09:36:50;9.33;;;6.67;;
4102;SDS011;2065;49.790;9.620;2022-07-23T09:39:23;8.67;;;7.53;;
4102;SDS011;2065;49.790;9.620;2022-07-23T09:41:53;9.17;;;7.20;;
4102;SDS011;2065;49.790;9.620;2022-07-23T09:44:21;10.30;;;7.10;;
4102;SDS011;2065;49.790;9.620;2022-07-23T09:50:56;10.20;;;6.97;;
4102;SDS011;2065;49.790;9.620;2022-07-23T09:56:46;6.73;;;6.00;;
4102;SDS011;2065;49.790;9.620;2022-07-23T09:59:14;7.50;;;6.80;;
4102;SDS011;2065;49.790;9.620;2022-07-23T10:01:45;9.40;;;7.30;;
4102;SDS011;2065;49.790;9.620;2022-07-23T10:04:13;8.00;;;7.20;;
4102;SDS011;2065;49.790;9.620;2022-07-23T10:07:00;7.83;;;6.90;;
4102;SDS011;2065;49.790;9.620;2022-07-23T10:09:47;9.80;;;6.80;;
4102;SDS011;2065;49.790;9.620;2022-07-23T10:12:46;7.87;;;7.10;;
4102;SDS011;2065;49.790;9.620;2022-07-23T10:15:29;7.50;;;6.90;;
4102;SDS011;2065;49.790;9.620;2022-07-23T10:17:59;7.87;;;6.77;;
4102;SDS011;2065;49.790;9.620;2022-07-23T10:21:18;7.90;;;7.13;;
4102;SDS011;2065;49.790;9.620;2022-07-23T10:26:49;8.63;;;7.80;;
4102;SDS011;2065;49.790;9.620;2022-07-23T10:32:43;8.10;;;7.00;;
4102;SDS011;2065;49.790;9.620;2022-07-23T10:35:18;8.97;;;7.70;;
4102;SDS011;2065;49.790;9.620;2022-07-23T10:37:54;8.53;;;7.70;;
4102;SDS011;2065;49.790;9.620;2022-07-23T10:44:40;10.67;;;8.60;;
4102;SDS011;2065;49.790;9.620;2022-07-23T10:47:08;8.07;;;7.27;;
4102;SDS011;2065;49.790;9.620;2022-07-23T10:50:19;9.43;;;8.60;;
4102;SDS011;2065;49.790;9.620;2022-07-23T10:57:05;8.00;;;6.50;;
4102;SDS011;2065;49.790;9.620;2022-07-23T11:02:54;7.50;;;6.80;;
4102;SDS011;2065;49.790;9.620;2022-07-23T11:24:04;8.60;;;7.70;;
4102;SDS011;2065;49.790;9.620;2022-07-23T11:30:40;8.30;;;7.40;;
4102;SDS011;2065;49.790;9.620;2022-07-23T11:33:16;8.37;;;7.50;;
4102;SDS011;2065;49.790;9.620;2022-07-23T11:39:53;7.87;;;7.13;;
4102;SDS011;2065;49.790;9.620;2022-07-23T11:46:56;8.40;;;7.60;;
4102;SDS011;2065;49.790;9.620;2022-07-23T11:49:23;7.90;;;7.03;;
4102;SDS011;2065;49.790;9.620;2022-07-23T12:22:46;7.53;;;6.77;;
4102;SDS011;2065;49.790;9.620;2022-07-23T12:25:14;7.90;;;7.10;;
4102;SDS011;2065;49.790;9.620;2022-07-23T12:35:57;8.93;;;7.70;;
4102;SDS011;2065;49.790;9.620;2022-07-23T13:01:57;8.33;;;7.53;;
4102;SDS011;2065;49.790;9.620;2022-07-23T13:04:25;7.57;;;6.90;;
4102;SDS011;2065;49.790;9.620;2022-07-23T13:18:48;7.53;;;6.40;;
4102;SDS011;2065;49.790;9.620;2022-07-23T13:21:15;7.57;;;6.80;;
4102;SDS011;2065;49.790;9.620;2022-07-23T13:23:42;7.00;;;6.40;;
4102;SDS011;2065;49.790;9.620;2022-07-23T13:26:59;7.20;;;6.50;;
4102;SDS011;2065;49.790;9.620;2022-07-23T14:18:04;6.20;;;5.60;;
4102;SDS011;2065;49.790;9.620;2022-07-23T14:45:14;5.80;;;5.30;;
4102;SDS011;2065;49.790;9.620;2022-07-23T14:47:41;7.20;;;5.53;;
4102;SDS011;2065;49.790;9.620;2022-07-23T15:05:25;7.17;;;5.77;;
4102;SDS011;2065;49.790;9.620;2022-07-23T15:07:53;6.30;;;5.70;;
4102;SDS011;2065;49.790;9.620;2022-07-23T15:10:20;6.53;;;5.67;;
4102;SDS011;2065;49.790;9.620;2022-07-23T15:13:46;9.05;;;5.57;;
4102;SDS011;2065;49.790;9.620;2022-07-23T15:16:37;6.30;;;5.60;;
4102;SDS011;2065;49.790;9.620;2022-07-23T15:19:53;6.93;;;6.33;;
4102;SDS011;2065;49.790;9.620;2022-07-23T15:22:21;6.20;;;5.60;;
4102;SDS011;2065;49.790;9.620;2022-07-23T15:39:42;7.00;;;6.10;;
4102;SDS011;2065;49.790;9.620;2022-07-23T15:46:16;7.30;;;5.50;;
4102;SDS011;2065;49.790;9.620;2022-07-23T15:48:43;6.90;;;6.30;;
4102;SDS011;2065;49.790;9.620;2022-07-23T16:27:02;5.67;;;5.17;;
4102;SDS011;2065;49.790;9.620;2022-07-23T16:29:29;5.80;;;5.40;;
4102;SDS011;2065;49.790;9.620;2022-07-23T16:34:48;6.77;;;6.13;;
4102;SDS011;2065;49.790;9.620;2022-07-23T16:37:17;5.70;;;5.30;;
4102;SDS011;2065;49.790;9.620;2022-07-23T16:39:44;5.40;;;4.90;;
4102;SDS011;2065;49.790;9.620;2022-07-23T16:42:11;7.13;;;5.03;;
4102;SDS011;2065;49.790;9.620;2022-07-23T16:45:27;7.20;;;5.67;;
4102;SDS011;2065;49.790;9.620;2022-07-23T16:48:44;5.50;;;5.00;;
4102;SDS011;2065;49.790;9.620;2022-07-23T16:52:00;8.37;;;7.57;;
4102;SDS011;2065;49.790;9.620;2022-07-23T16:55:17;7.13;;;6.43;;
4102;SDS011;2065;49.790;9.620;2022-07-23T16:58:33;5.97;;;5.43;;
4102;SDS011;2065;49.790;9.620;2022-07-23T17:01:50;9.03;;;8.07;;
4102;SDS011;2065;49.790;9.620;2022-07-23T17:05:06;8.47;;;6.17;;
4102;SDS011;2065;49.790;9.620;2022-07-23T17:08:49;6.00;;;5.40;;
4102;SDS011;2065;49.790;9.620;2022-07-23T17:12:32;6.50;;;4.90;;
4102;SDS011;2065;49.790;9.620;2022-07-23T17:33:11;5.30;;;4.77;;
4102;SDS011;2065;49.790;9.620;2022-07-23T17:48:29;10.00;;;5.30;;
4102;SDS011;2065;49.790;9.620;2022-07-23T17:58:47;8.13;;;5.57;;
4102;SDS011;2065;49.790;9.620;2022-07-23T18:01:14;6.77;;;5.83;;
4102;SDS011;2065;49.790;9.620;2022-07-23T18:07:00;6.80;;;5.10;;
4102;SDS011;2065;49.790;9.620;2022-07-23T18:09:27;7.43;;;5.30;;
4102;SDS011;2065;49.790;9.620;2022-07-23T18:11:54;11.53;;;6.10;;
4102;SDS011;2065;49.790;9.620;2022-07-23T18:14:21;10.03;;;6.77;;
4102;SDS011;2065;49.790;9.620;2022-07-23T18:16:49;17.80;;;6.20;;
4102;SDS011;2065;49.790;9.620;2022-07-23T18:19:16;13.33;;;8.07;;
4102;SDS011;2065;49.790;9.620;2022-07-23T18:21:43;9.50;;;5.73;;
4102;SDS011;2065;49.790;9.620;2022-07-23T18:24:13;5.87;;;5.27;;
4102;SDS011;2065;49.790;9.620;2022-07-23T18:26:40;6.00;;;5.40;;
4102;SDS011;2065;49.790;9.620;2022-07-23T18:29:07;5.50;;;4.80;;
4102;SDS011;2065;49.790;9.620;2022-07-23T18:31:34;6.00;;;5.00;;
4102;SDS011;2065;49.790;9.620;2022-07-23T18:34:01;5.50;;;4.50;;
4102;SDS011;2065;49.790;9.620;2022-07-23T18:36:52;6.00;;;5.50;;
4102;SDS011;2065;49.790;9.620;2022-07-23T18:40:09;6.07;;;5.47;;
4102;SDS011;2065;49.790;9.620;2022-07-23T18:42:40;5.80;;;5.17;;
4102;SDS011;2065;49.790;9.620;2022-07-23T18:45:08;13.97;;;5.20;;
4102;SDS011;2065;49.790;9.620;2022-07-23T18:47:37;6.03;;;5.50;;
4102;SDS011;2065;49.790;9.620;2022-07-23T18:52:56;6.90;;;4.93;;
4102;SDS011;2065;49.790;9.620;2022-07-23T18:55:25;5.83;;;5.27;;
4102;SDS011;2065;49.790;9.620;2022-07-23T18:57:52;5.77;;;5.20;;
4102;SDS011;2065;49.790;9.620;2022-07-23T19:00:20;6.83;;;4.90;;
4102;SDS011;2065;49.790;9.620;2022-07-23T19:02:47;5.50;;;4.80;;
4102;SDS011;2065;49.790;9.620;2022-07-23T19:05:14;9.60;;;5.10;;
4102;SDS011;2065;49.790;9.620;2022-07-23T19:07:41;5.90;;;5.30;;
4102;SDS011;2065;49.790;9.620;2022-07-23T19:13:03;6.33;;;5.03;;
4102;SDS011;2065;49.790;9.620;2022-07-23T19:15:30;8.57;;;5.07;;
4102;SDS011;2065;49.790;9.620;2022-07-23T19:17:58;6.13;;;5.00;;
4102;SDS011;2065;49.790;9.620;2022-07-23T19:20:25;5.90;;;5.20;;
4102;SDS011;2065;49.790;9.620;2022-07-23T19:22:52;12.03;;;5.60;;
4102;SDS011;2065;49.790;9.620;2022-07-23T19:28:39;5.50;;;5.00;;
4102;SDS011;2065;49.790;9.620;2022-07-23T19:35:14;6.30;;;5.00;;
4102;SDS011;2065;49.790;9.620;2022-07-23T19:37:41;11.07;;;5.40;;
4102;SDS011;2065;49.790;9.620;2022-07-23T19:42:59;5.70;;;5.20;;
4102;SDS011;2065;49.790;9.620;2022-07-23T19:49:10;5.90;;;5.20;;
4102;SDS011;2065;49.790;9.620;2022-07-23T19:55:45;8.60;;;5.53;;
4102;SDS011;2065;49.790;9.620;2022-07-23T19:58:12;6.70;;;5.87;;
4102;SDS011;2065;49.790;9.620;2022-07-23T20:00:39;8.13;;;5.27;;
4102;SDS011;2065;49.790;9.620;2022-07-23T20:11:25;5.20;;;4.70;;
4102;SDS011;2065;49.790;9.620;2022-07-23T20:13:52;6.63;;;5.90;;
4102;SDS011;2065;49.790;9.620;2022-07-23T20:20:28;7.47;;;5.63;;
4102;SDS011;2065;49.790;9.620;2022-07-23T20:22:55;6.17;;;5.60;;
4102;SDS011;2065;49.790;9.620;2022-07-23T20:25:22;6.50;;;5.80;;
4102;SDS011;2065;49.790;9.620;2022-07-23T20:31:57;6.27;;;5.67;;
4102;SDS011;2065;49.790;9.620;2022-07-23T20:34:24;5.80;;;5.20;;
4102;SDS011;2065;49.790;9.620;2022-07-23T20:36:51;7.90;;;6.00;;
4102;SDS011;2065;49.790;9.620;2022-07-23T20:40:08;7.47;;;5.57;;
4102;SDS011;2065;49.790;9.620;2022-07-23T20:42:59;10.13;;;5.83;;
4102;SDS011;2065;49.790;9.620;2022-07-23T20:45:26;7.30;;;5.40;;
4102;SDS011;2065;49.790;9.620;2022-07-23T20:47:55;9.47;;;5.90;;
4102;SDS011;2065;49.790;9.620;2022-07-23T20:50:22;6.50;;;5.90;;
4102;SDS011;2065;49.790;9.620;2022-07-23T20:52:51;7.90;;;5.90;;
4102;SDS011;2065;49.790;9.620;2022-07-23T20:55:18;7.23;;;6.13;;
4102;SDS011;2065;49.790;9.620;2022-07-23T20:57:45;7.47;;;5.90;;
4102;SDS011;2065;49.790;9.620;2022-07-23T21:00:13;7.40;;;5.90;;
4102;SDS011;2065;49.790;9.620;2022-07-23T21:02:41;5.90;;;5.30;;
4102;SDS011;2065;49.790;9.620;2022-07-23T21:05:10;6.83;;;5.70;;
4102;SDS011;2065;49.790;9.620;2022-07-23T21:07:37;9.20;;;6.40;;
4102;SDS011;2065;49.790;9.620;2022-07-23T21:10:53;10.67;;;5.93;;
4102;SDS011;2065;49.790;9.620;2022-07-23T21:13:20;7.57;;;5.87;;
4102;SDS011;2065;49.790;9.620;2022-07-23T21:15:47;7.70;;;6.27;;
4102;SDS011;2065;49.790;9.620;2022-07-23T21:18:14;7.33;;;6.30;;
4102;SDS011;2065;49.790;9.620;2022-07-23T21:20:42;10.43;;;6.73;;
4102;SDS011;2065;49.790;9.620;2022-07-23T21:23:26;7.00;;;5.77;;
4102;SDS011;2065;49.790;9.620;2022-07-23T21:25:54;8.20;;;6.13;;
4102;SDS011;2065;49.790;9.620;2022-07-23T21:28:20;11.50;;;6.53;;
4102;SDS011;2065;49.790;9.620;2022-07-23T21:30:47;7.30;;;6.60;;
4102;SDS011;2065;49.790;9.620;2022-07-23T21:33:14;7.10;;;5.70;;
4102;SDS011;2065;49.790;9.620;2022-07-23T21:35:43;8.10;;;5.80;;
4102;SDS011;2065;49.790;9.620;2022-07-23T21:38:10;6.67;;;5.93;;
4102;SDS011;2065;49.790;9.620;2022-07-23T21:41:01;8.67;;;6.00;;
4102;SDS011;2065;49.790;9.620;2022-07-23T21:52:35;7.07;;;6.37;;
4102;SDS011;2065;49.790;9.620;2022-07-23T21:55:03;8.73;;;6.13;;
4102;SDS011;2065;49.790;9.620;2022-07-23T22:14:01;8.20;;;6.70;;
4102;SDS011;2065;49.790;9.620;2022-07-23T22:16:28;7.80;;;7.00;;
4102;SDS011;2065;49.790;9.620;2022-07-23T22:18:56;7.80;;;7.00;;
4102;SDS011;2065;49.790;9.620;2022-07-23T22:22:12;7.97;;;7.20;;
4102;SDS011;2065;49.790;9.620;2022-07-23T22:29:36;8.77;;;7.27;;
4102;SDS011;2065;49.790;9.620;2022-07-23T22:32:04;8.57;;;7.70;;
4102;SDS011;2065;49.790;9.620;2022-07-23T22:59:41;9.20;;;6.90;;
4102;SDS011;2065;49.790;9.620;2022-07-23T23:02:08;8.43;;;7.53;;
4102;SDS011;2065;49.790;9.620;2022-07-23T23:08:43;9.37;;;7.37;;
4102;SDS011;2065;49.790;9.620;2022-07-23T23:11:10;7.63;;;6.70;;
4102;SDS011;2065;49.790;9.620;2022-07-23T23:13:37;11.50;;;7.60;;
4102;SDS011;2065;49.790;9.620;2022-07-23T23:19:46;8.53;;;7.63;;
4102;SDS011;2065;49.790;9.620;2022-07-23T23:22:13;9.23;;;7.70;;
4102;SDS011;2065;49.790;9.620;2022-07-23T23:28:51;9.97;;;8.60;;
4102;SDS011;2065;49.790;9.620;2022-07-23T23:35:02;9.47;;;7.13;;
4102;SDS011;2065;49.790;9.620;2022-07-23T23:37:30;8.90;;;8.00;;
4102;SDS011;2065;49.790;9.620;2022-07-23T23:44:07;7.10;;;6.40;;
4102;SDS011;2065;49.790;9.620;2022-07-23T23:50:17;8.87;;;7.00;;
4102;SDS011;2065;49.790;9.620;2022-07-23T23:52:44;13.53;;;7.40;;
4102;SDS011;2065;49.790;9.620;2022-07-23T23:55:11;8.40;;;7.30;;
4102;SDS011;2065;49.790;9.620;2022-07-23T23:57:38;10.93;;;7.77;;
